sensor_id;sensor_type;location;lat;lon;timestamp;P1;durP1;ratioP1;P2;durP2;ratioP2
20928;SDS011;21895;47.072;15.132;2023-02-28T00:02:06;10.37;;;5.03;;
20928;SDS011;21895;47.072;15.132;2023-02-28T00:04:33;15.43;;;6.17;;
20928;SDS011;21895;47.072;15.132;2023-02-28T00:06:59;11.00;;;5.80;;
20928;SDS011;21895;47.072;15.132;2023-02-28T00:09:26;13.03;;;5.63;;
20928;SDS011;21895;47.072;15.132;2023-02-28T00:11:52;15.20;;;6.23;;
20928;SDS011;21895;47.072;15.132;2023-02-28T00:14:19;13.97;;;6.10;;
20928;SDS011;21895;47.072;15.132;2023-02-28T00:16:45;16.23;;;6.60;;
20928;SDS011;21895;47.072;15.132;2023-02-28T00:19:12;16.50;;;6.87;;
20928;SDS011;21895;47.072;15.132;2023-02-28T00:21:38;15.23;;;7.07;;
20928;SDS011;21895;47.072;15.132;2023-02-28T00:24:06;10.93;;;5.83;;
20928;SDS011;21895;47.072;15.132;2023-02-28T00:26:32;13.27;;;6.37;;
20928;SDS011;21895;47.072;15.132;2023-02-28T00:28:59;14.37;;;6.03;;
20928;SDS011;21895;47.072;15.132;2023-02-28T00:31:25;11.40;;;5.63;;
20928;SDS011;21895;47.072;15.132;2023-02-28T00:33:52;11.17;;;5.43;;
20928;SDS011;21895;47.072;15.132;2023-02-28T00:36:19;16.73;;;6.17;;
20928;SDS011;21895;47.072;15.132;2023-02-28T00:38:45;10.80;;;5.57;;
20928;SDS011;21895;47.072;15.132;2023-02-28T00:41:12;11.67;;;5.47;;
20928;SDS011;21895;47.072;15.132;2023-02-28T00:43:38;12.77;;;6.07;;
20928;SDS011;21895;47.072;15.132;2023-02-28T00:46:05;14.13;;;6.00;;
20928;SDS011;21895;47.072;15.132;2023-02-28T00:48:32;14.20;;;6.17;;
20928;SDS011;21895;47.072;15.132;2023-02-28T00:50:59;11.47;;;5.90;;
20928;SDS011;21895;47.072;15.132;2023-02-28T00:53:26;15.20;;;5.93;;
20928;SDS011;21895;47.072;15.132;2023-02-28T00:55:53;14.67;;;6.27;;
20928;SDS011;21895;47.072;15.132;2023-02-28T00:58:20;11.03;;;5.93;;
20928;SDS011;21895;47.072;15.132;2023-02-28T01:00:46;10.67;;;5.50;;
20928;SDS011;21895;47.072;15.132;2023-02-28T01:03:15;13.63;;;5.97;;
20928;SDS011;21895;47.072;15.132;2023-02-28T01:05:43;11.57;;;5.53;;
20928;SDS011;21895;47.072;15.132;2023-02-28T01:08:11;11.73;;;5.40;;
20928;SDS011;21895;47.072;15.132;2023-02-28T01:10:39;13.77;;;6.03;;
20928;SDS011;21895;47.072;15.132;2023-02-28T01:13:05;12.20;;;5.70;;
20928;SDS011;21895;47.072;15.132;2023-02-28T01:15:32;12.10;;;6.07;;
20928;SDS011;21895;47.072;15.132;2023-02-28T01:17:59;13.07;;;6.40;;
20928;SDS011;21895;47.072;15.132;2023-02-28T01:20:25;15.07;;;5.77;;
20928;SDS011;21895;47.072;15.132;2023-02-28T01:22:52;13.13;;;5.77;;
20928;SDS011;21895;47.072;15.132;2023-02-28T01:25:18;11.53;;;5.87;;
20928;SDS011;21895;47.072;15.132;2023-02-28T01:27:45;17.33;;;6.10;;
20928;SDS011;21895;47.072;15.132;2023-02-28T01:30:11;12.27;;;4.97;;
20928;SDS011;21895;47.072;15.132;2023-02-28T01:32:38;12.37;;;5.67;;
20928;SDS011;21895;47.072;15.132;2023-02-28T01:35:05;10.40;;;5.27;;
20928;SDS011;21895;47.072;15.132;2023-02-28T01:37:31;9.80;;;4.90;;
20928;SDS011;21895;47.072;15.132;2023-02-28T01:39:58;10.03;;;5.27;;
20928;SDS011;21895;47.072;15.132;2023-02-28T01:42:24;14.90;;;5.73;;
20928;SDS011;21895;47.072;15.132;2023-02-28T01:44:58;10.20;;;5.20;;
20928;SDS011;21895;47.072;15.132;2023-02-28T01:47:33;12.63;;;5.27;;
20928;SDS011;21895;47.072;15.132;2023-02-28T01:50:07;14.13;;;5.57;;
20928;SDS011;21895;47.072;15.132;2023-02-28T01:52:40;15.73;;;5.83;;
20928;SDS011;21895;47.072;15.132;2023-02-28T01:55:10;12.13;;;5.40;;
20928;SDS011;21895;47.072;15.132;2023-02-28T01:57:40;11.57;;;5.53;;
20928;SDS011;21895;47.072;15.132;2023-02-28T02:00:17;11.37;;;4.97;;
20928;SDS011;21895;47.072;15.132;2023-02-28T02:02:50;11.53;;;5.30;;
20928;SDS011;21895;47.072;15.132;2023-02-28T02:05:22;13.47;;;6.40;;
20928;SDS011;21895;47.072;15.132;2023-02-28T02:07:57;10.03;;;5.27;;
20928;SDS011;21895;47.072;15.132;2023-02-28T02:10:39;18.23;;;5.90;;
20928;SDS011;21895;47.072;15.132;2023-02-28T02:13:22;11.43;;;5.40;;
20928;SDS011;21895;47.072;15.132;2023-02-28T02:20:11;17.50;;;5.73;;
20928;SDS011;21895;47.072;15.132;2023-02-28T02:40:49;14.83;;;5.60;;
20928;SDS011;21895;47.072;15.132;2023-02-28T02:45:53;9.40;;;5.20;;
20928;SDS011;21895;47.072;15.132;2023-02-28T02:48:29;11.67;;;5.50;;
20928;SDS011;21895;47.072;15.132;2023-02-28T02:51:01;13.33;;;6.27;;
20928;SDS011;21895;47.072;15.132;2023-02-28T02:53:38;14.53;;;6.70;;
20928;SDS011;21895;47.072;15.132;2023-02-28T02:56:16;15.77;;;5.83;;
20928;SDS011;21895;47.072;15.132;2023-02-28T02:58:49;11.27;;;5.77;;
20928;SDS011;21895;47.072;15.132;2023-02-28T03:01:21;12.03;;;5.70;;
20928;SDS011;21895;47.072;15.132;2023-02-28T03:03:58;11.63;;;5.63;;
20928;SDS011;21895;47.072;15.132;2023-02-28T03:06:43;11.57;;;5.70;;
20928;SDS011;21895;47.072;15.132;2023-02-28T03:09:10;14.50;;;5.90;;
20928;SDS011;21895;47.072;15.132;2023-02-28T03:11:37;13.40;;;6.10;;
20928;SDS011;21895;47.072;15.132;2023-02-28T03:14:19;15.63;;;7.07;;
20928;SDS011;21895;47.072;15.132;2023-02-28T03:20:49;12.10;;;5.93;;
20928;SDS011;21895;47.072;15.132;2023-02-28T03:26:08;14.20;;;5.50;;
20928;SDS011;21895;47.072;15.132;2023-02-28T03:28:51;12.60;;;5.80;;
20928;SDS011;21895;47.072;15.132;2023-02-28T03:31:50;11.00;;;5.67;;
20928;SDS011;21895;47.072;15.132;2023-02-28T03:34:25;13.07;;;6.43;;
20928;SDS011;21895;47.072;15.132;2023-02-28T03:37:15;14.87;;;5.77;;
20928;SDS011;21895;47.072;15.132;2023-02-28T03:39:49;12.67;;;5.73;;
20928;SDS011;21895;47.072;15.132;2023-02-28T03:42:27;11.40;;;5.60;;
20928;SDS011;21895;47.072;15.132;2023-02-28T03:45:32;11.40;;;5.80;;
20928;SDS011;21895;47.072;15.132;2023-02-28T03:48:08;13.37;;;5.30;;
20928;SDS011;21895;47.072;15.132;2023-02-28T03:50:45;24.07;;;6.00;;
20928;SDS011;21895;47.072;15.132;2023-02-28T03:53:22;14.97;;;5.77;;
20928;SDS011;21895;47.072;15.132;2023-02-28T04:01:40;15.67;;;5.47;;
20928;SDS011;21895;47.072;15.132;2023-02-28T04:04:13;17.23;;;6.57;;
20928;SDS011;21895;47.072;15.132;2023-02-28T04:06:42;9.87;;;5.13;;
20928;SDS011;21895;47.072;15.132;2023-02-28T04:09:10;10.57;;;5.67;;
20928;SDS011;21895;47.072;15.132;2023-02-28T04:11:43;11.33;;;5.80;;
20928;SDS011;21895;47.072;15.132;2023-02-28T04:14:21;11.67;;;5.67;;
20928;SDS011;21895;47.072;15.132;2023-02-28T04:16:48;10.93;;;5.87;;
20928;SDS011;21895;47.072;15.132;2023-02-28T04:19:16;10.80;;;5.77;;
20928;SDS011;21895;47.072;15.132;2023-02-28T04:21:44;17.87;;;6.23;;
20928;SDS011;21895;47.072;15.132;2023-02-28T04:24:22;19.17;;;6.33;;
20928;SDS011;21895;47.072;15.132;2023-02-28T04:26:52;11.47;;;6.03;;
20928;SDS011;21895;47.072;15.132;2023-02-28T04:29:25;12.60;;;5.90;;
20928;SDS011;21895;47.072;15.132;2023-02-28T04:31:55;12.43;;;5.80;;
20928;SDS011;21895;47.072;15.132;2023-02-28T04:34:26;11.83;;;6.00;;
20928;SDS011;21895;47.072;15.132;2023-02-28T04:36:54;15.27;;;6.30;;
20928;SDS011;21895;47.072;15.132;2023-02-28T04:39:38;13.10;;;6.23;;
20928;SDS011;21895;47.072;15.132;2023-02-28T04:42:06;11.27;;;5.43;;
20928;SDS011;21895;47.072;15.132;2023-02-28T04:44:33;12.60;;;5.73;;
20928;SDS011;21895;47.072;15.132;2023-02-28T04:46:59;16.33;;;6.50;;
20928;SDS011;21895;47.072;15.132;2023-02-28T04:49:26;11.47;;;5.70;;
20928;SDS011;21895;47.072;15.132;2023-02-28T04:51:52;11.97;;;5.20;;
20928;SDS011;21895;47.072;15.132;2023-02-28T04:54:19;12.37;;;5.67;;
20928;SDS011;21895;47.072;15.132;2023-02-28T04:56:45;13.53;;;5.87;;
20928;SDS011;21895;47.072;15.132;2023-02-28T04:59:13;10.53;;;5.27;;
20928;SDS011;21895;47.072;15.132;2023-02-28T05:01:40;17.37;;;6.47;;
20928;SDS011;21895;47.072;15.132;2023-02-28T05:04:11;15.67;;;6.30;;
20928;SDS011;21895;47.072;15.132;2023-02-28T05:06:38;13.87;;;5.97;;
20928;SDS011;21895;47.072;15.132;2023-02-28T05:09:04;19.77;;;6.00;;
20928;SDS011;21895;47.072;15.132;2023-02-28T05:11:31;14.33;;;6.13;;
20928;SDS011;21895;47.072;15.132;2023-02-28T05:14:04;15.97;;;6.63;;
20928;SDS011;21895;47.072;15.132;2023-02-28T05:16:37;16.87;;;6.93;;
20928;SDS011;21895;47.072;15.132;2023-02-28T05:19:03;14.27;;;6.23;;
20928;SDS011;21895;47.072;15.132;2023-02-28T05:21:31;12.17;;;5.63;;
20928;SDS011;21895;47.072;15.132;2023-02-28T05:24:02;16.53;;;7.90;;
20928;SDS011;21895;47.072;15.132;2023-02-28T05:26:39;17.37;;;7.17;;
20928;SDS011;21895;47.072;15.132;2023-02-28T05:29:08;19.30;;;8.83;;
20928;SDS011;21895;47.072;15.132;2023-02-28T05:31:35;23.93;;;8.87;;
20928;SDS011;21895;47.072;15.132;2023-02-28T05:34:03;23.43;;;9.03;;
20928;SDS011;21895;47.072;15.132;2023-02-28T05:36:30;29.03;;;8.47;;
20928;SDS011;21895;47.072;15.132;2023-02-28T05:38:57;17.47;;;6.83;;
20928;SDS011;21895;47.072;15.132;2023-02-28T05:41:24;17.53;;;6.83;;
20928;SDS011;21895;47.072;15.132;2023-02-28T05:43:51;13.63;;;6.37;;
20928;SDS011;21895;47.072;15.132;2023-02-28T05:46:18;16.17;;;6.20;;
20928;SDS011;21895;47.072;15.132;2023-02-28T05:48:46;14.23;;;6.50;;
20928;SDS011;21895;47.072;15.132;2023-02-28T05:51:14;20.47;;;7.77;;
20928;SDS011;21895;47.072;15.132;2023-02-28T05:53:41;20.00;;;7.17;;
20928;SDS011;21895;47.072;15.132;2023-02-28T05:56:08;17.07;;;6.90;;
20928;SDS011;21895;47.072;15.132;2023-02-28T05:58:34;14.97;;;7.13;;
20928;SDS011;21895;47.072;15.132;2023-02-28T06:01:18;14.33;;;6.73;;
20928;SDS011;21895;47.072;15.132;2023-02-28T06:04:14;14.73;;;7.20;;
20928;SDS011;21895;47.072;15.132;2023-02-28T06:06:56;19.17;;;6.57;;
20928;SDS011;21895;47.072;15.132;2023-02-28T06:09:23;12.77;;;6.60;;
20928;SDS011;21895;47.072;15.132;2023-02-28T06:11:50;14.60;;;6.60;;
20928;SDS011;21895;47.072;15.132;2023-02-28T06:14:17;17.07;;;7.20;;
20928;SDS011;21895;47.072;15.132;2023-02-28T06:16:46;13.83;;;6.87;;
20928;SDS011;21895;47.072;15.132;2023-02-28T06:19:12;14.13;;;6.27;;
20928;SDS011;21895;47.072;15.132;2023-02-28T06:21:40;16.17;;;7.57;;
20928;SDS011;21895;47.072;15.132;2023-02-28T06:24:06;13.97;;;6.53;;
20928;SDS011;21895;47.072;15.132;2023-02-28T06:26:34;20.30;;;7.20;;
20928;SDS011;21895;47.072;15.132;2023-02-28T06:29:01;13.93;;;6.40;;
20928;SDS011;21895;47.072;15.132;2023-02-28T06:31:28;15.23;;;6.47;;
20928;SDS011;21895;47.072;15.132;2023-02-28T06:33:55;14.57;;;6.50;;
20928;SDS011;21895;47.072;15.132;2023-02-28T06:36:22;17.83;;;6.57;;
20928;SDS011;21895;47.072;15.132;2023-02-28T06:38:48;14.20;;;6.67;;
20928;SDS011;21895;47.072;15.132;2023-02-28T06:41:21;16.77;;;7.10;;
20928;SDS011;21895;47.072;15.132;2023-02-28T06:43:52;13.43;;;6.60;;
20928;SDS011;21895;47.072;15.132;2023-02-28T06:46:18;21.67;;;7.43;;
20928;SDS011;21895;47.072;15.132;2023-02-28T06:48:45;20.63;;;7.77;;
20928;SDS011;21895;47.072;15.132;2023-02-28T06:51:14;16.83;;;8.00;;
20928;SDS011;21895;47.072;15.132;2023-02-28T06:53:46;13.67;;;6.77;;
20928;SDS011;21895;47.072;15.132;2023-02-28T06:56:13;14.47;;;7.33;;
20928;SDS011;21895;47.072;15.132;2023-02-28T06:58:42;17.87;;;7.10;;
20928;SDS011;21895;47.072;15.132;2023-02-28T07:01:13;14.50;;;6.77;;
20928;SDS011;21895;47.072;15.132;2023-02-28T07:03:39;13.60;;;6.40;;
20928;SDS011;21895;47.072;15.132;2023-02-28T07:06:06;14.30;;;6.70;;
20928;SDS011;21895;47.072;15.132;2023-02-28T07:08:33;14.43;;;6.17;;
20928;SDS011;21895;47.072;15.132;2023-02-28T07:11:01;17.73;;;6.97;;
20928;SDS011;21895;47.072;15.132;2023-02-28T07:13:28;15.60;;;6.63;;
20928;SDS011;21895;47.072;15.132;2023-02-28T07:15:59;20.57;;;6.47;;
20928;SDS011;21895;47.072;15.132;2023-02-28T07:18:31;16.93;;;7.00;;
20928;SDS011;21895;47.072;15.132;2023-02-28T07:20:58;15.63;;;6.30;;
20928;SDS011;21895;47.072;15.132;2023-02-28T07:23:28;20.83;;;7.23;;
20928;SDS011;21895;47.072;15.132;2023-02-28T07:25:54;14.57;;;7.27;;
20928;SDS011;21895;47.072;15.132;2023-02-28T07:28:21;17.93;;;7.63;;
20928;SDS011;21895;47.072;15.132;2023-02-28T07:30:47;13.83;;;6.33;;
20928;SDS011;21895;47.072;15.132;2023-02-28T07:33:14;15.43;;;6.80;;
20928;SDS011;21895;47.072;15.132;2023-02-28T07:35:41;17.13;;;7.23;;
20928;SDS011;21895;47.072;15.132;2023-02-28T07:38:08;14.07;;;7.10;;
20928;SDS011;21895;47.072;15.132;2023-02-28T07:40:34;19.37;;;7.60;;
20928;SDS011;21895;47.072;15.132;2023-02-28T07:43:02;26.70;;;7.40;;
20928;SDS011;21895;47.072;15.132;2023-02-28T07:45:29;19.13;;;7.80;;
20928;SDS011;21895;47.072;15.132;2023-02-28T07:47:59;20.83;;;8.03;;
20928;SDS011;21895;47.072;15.132;2023-02-28T07:50:27;16.07;;;7.40;;
20928;SDS011;21895;47.072;15.132;2023-02-28T07:52:57;15.83;;;7.67;;
20928;SDS011;21895;47.072;15.132;2023-02-28T07:55:24;16.87;;;6.90;;
20928;SDS011;21895;47.072;15.132;2023-02-28T07:57:51;22.73;;;7.70;;
20928;SDS011;21895;47.072;15.132;2023-02-28T08:00:17;14.53;;;7.23;;
20928;SDS011;21895;47.072;15.132;2023-02-28T08:02:44;19.40;;;8.03;;
20928;SDS011;21895;47.072;15.132;2023-02-28T08:05:11;19.13;;;8.10;;
20928;SDS011;21895;47.072;15.132;2023-02-28T08:07:37;22.40;;;8.00;;
20928;SDS011;21895;47.072;15.132;2023-02-28T08:10:04;17.60;;;7.30;;
20928;SDS011;21895;47.072;15.132;2023-02-28T08:12:32;22.90;;;8.27;;
20928;SDS011;21895;47.072;15.132;2023-02-28T08:14:58;19.53;;;8.10;;
20928;SDS011;21895;47.072;15.132;2023-02-28T08:17:25;20.43;;;8.77;;
20928;SDS011;21895;47.072;15.132;2023-02-28T08:19:51;20.13;;;7.90;;
20928;SDS011;21895;47.072;15.132;2023-02-28T08:22:18;20.50;;;8.23;;
20928;SDS011;21895;47.072;15.132;2023-02-28T08:24:44;20.30;;;8.03;;
20928;SDS011;21895;47.072;15.132;2023-02-28T08:27:11;24.07;;;8.53;;
20928;SDS011;21895;47.072;15.132;2023-02-28T08:29:38;17.50;;;8.30;;
20928;SDS011;21895;47.072;15.132;2023-02-28T08:32:05;20.93;;;9.23;;
20928;SDS011;21895;47.072;15.132;2023-02-28T08:34:45;16.83;;;8.00;;
20928;SDS011;21895;47.072;15.132;2023-02-28T08:37:13;22.63;;;9.13;;
20928;SDS011;21895;47.072;15.132;2023-02-28T08:39:39;22.97;;;8.97;;
20928;SDS011;21895;47.072;15.132;2023-02-28T08:42:06;22.10;;;9.23;;
20928;SDS011;21895;47.072;15.132;2023-02-28T08:44:33;19.90;;;8.97;;
20928;SDS011;21895;47.072;15.132;2023-02-28T08:47:00;21.80;;;8.67;;
20928;SDS011;21895;47.072;15.132;2023-02-28T08:49:26;21.87;;;9.03;;
20928;SDS011;21895;47.072;15.132;2023-02-28T08:51:54;26.33;;;9.17;;
20928;SDS011;21895;47.072;15.132;2023-02-28T08:54:22;19.67;;;8.40;;
20928;SDS011;21895;47.072;15.132;2023-02-28T08:56:49;23.10;;;8.80;;
20928;SDS011;21895;47.072;15.132;2023-02-28T08:59:16;21.23;;;8.70;;
20928;SDS011;21895;47.072;15.132;2023-02-28T09:01:42;24.67;;;9.23;;
20928;SDS011;21895;47.072;15.132;2023-02-28T09:04:09;23.43;;;9.00;;
20928;SDS011;21895;47.072;15.132;2023-02-28T09:06:37;19.50;;;8.37;;
20928;SDS011;21895;47.072;15.132;2023-02-28T09:09:04;21.63;;;8.30;;
20928;SDS011;21895;47.072;15.132;2023-02-28T09:11:33;21.93;;;8.90;;
20928;SDS011;21895;47.072;15.132;2023-02-28T09:14:01;21.83;;;9.07;;
20928;SDS011;21895;47.072;15.132;2023-02-28T09:16:29;24.10;;;9.47;;
20928;SDS011;21895;47.072;15.132;2023-02-28T09:18:58;19.57;;;8.93;;
20928;SDS011;21895;47.072;15.132;2023-02-28T09:21:25;20.83;;;9.07;;
20928;SDS011;21895;47.072;15.132;2023-02-28T09:23:52;26.87;;;9.03;;
20928;SDS011;21895;47.072;15.132;2023-02-28T09:26:20;26.67;;;9.73;;
20928;SDS011;21895;47.072;15.132;2023-02-28T09:29:04;25.33;;;9.00;;
20928;SDS011;21895;47.072;15.132;2023-02-28T09:31:30;22.40;;;8.40;;
20928;SDS011;21895;47.072;15.132;2023-02-28T09:33:57;22.07;;;8.83;;
20928;SDS011;21895;47.072;15.132;2023-02-28T09:36:27;18.50;;;9.37;;
20928;SDS011;21895;47.072;15.132;2023-02-28T09:39:09;20.33;;;8.97;;
20928;SDS011;21895;47.072;15.132;2023-02-28T09:41:38;19.97;;;9.53;;
20928;SDS011;21895;47.072;15.132;2023-02-28T09:47:34;21.07;;;9.03;;
20928;SDS011;21895;47.072;15.132;2023-02-28T09:53:15;20.93;;;9.33;;
20928;SDS011;21895;47.072;15.132;2023-02-28T09:55:57;26.80;;;9.03;;
20928;SDS011;21895;47.072;15.132;2023-02-28T10:04:08;23.17;;;8.70;;
20928;SDS011;21895;47.072;15.132;2023-02-28T10:10:46;22.37;;;9.40;;
20928;SDS011;21895;47.072;15.132;2023-02-28T10:13:33;23.10;;;9.23;;
20928;SDS011;21895;47.072;15.132;2023-02-28T10:16:12;19.27;;;8.80;;
20928;SDS011;21895;47.072;15.132;2023-02-28T10:18:47;26.07;;;10.07;;
20928;SDS011;21895;47.072;15.132;2023-02-28T10:21:30;22.33;;;8.70;;
20928;SDS011;21895;47.072;15.132;2023-02-28T10:24:08;21.33;;;8.30;;
20928;SDS011;21895;47.072;15.132;2023-02-28T10:29:07;23.07;;;9.20;;
20928;SDS011;21895;47.072;15.132;2023-02-28T10:31:35;28.17;;;9.30;;
20928;SDS011;21895;47.072;15.132;2023-02-28T10:34:03;21.50;;;8.67;;
20928;SDS011;21895;47.072;15.132;2023-02-28T10:36:31;21.43;;;9.23;;
20928;SDS011;21895;47.072;15.132;2023-02-28T10:39:01;21.13;;;9.93;;
20928;SDS011;21895;47.072;15.132;2023-02-28T10:42:04;19.33;;;9.50;;
20928;SDS011;21895;47.072;15.132;2023-02-28T10:45:09;26.40;;;9.70;;
20928;SDS011;21895;47.072;15.132;2023-02-28T10:47:58;23.37;;;9.27;;
20928;SDS011;21895;47.072;15.132;2023-02-28T10:52:38;23.23;;;9.50;;
20928;SDS011;21895;47.072;15.132;2023-02-28T10:55:19;19.57;;;9.40;;
20928;SDS011;21895;47.072;15.132;2023-02-28T10:57:50;28.73;;;9.40;;
20928;SDS011;21895;47.072;15.132;2023-02-28T11:00:19;25.83;;;9.33;;
20928;SDS011;21895;47.072;15.132;2023-02-28T11:02:50;21.63;;;9.13;;
20928;SDS011;21895;47.072;15.132;2023-02-28T11:05:24;19.97;;;8.97;;
20928;SDS011;21895;47.072;15.132;2023-02-28T11:08:13;23.27;;;10.07;;
20928;SDS011;21895;47.072;15.132;2023-02-28T11:10:56;23.20;;;9.77;;
20928;SDS011;21895;47.072;15.132;2023-02-28T11:13:31;22.27;;;10.07;;
20928;SDS011;21895;47.072;15.132;2023-02-28T11:16:02;21.13;;;9.97;;
20928;SDS011;21895;47.072;15.132;2023-02-28T11:18:48;23.10;;;9.90;;
20928;SDS011;21895;47.072;15.132;2023-02-28T11:21:23;25.67;;;9.50;;
20928;SDS011;21895;47.072;15.132;2023-02-28T11:24:04;22.00;;;9.73;;
20928;SDS011;21895;47.072;15.132;2023-02-28T11:28:03;22.73;;;8.77;;
20928;SDS011;21895;47.072;15.132;2023-02-28T11:30:59;24.97;;;9.63;;
20928;SDS011;21895;47.072;15.132;2023-02-28T11:33:52;25.10;;;9.87;;
20928;SDS011;21895;47.072;15.132;2023-02-28T11:36:22;24.73;;;9.63;;
20928;SDS011;21895;47.072;15.132;2023-02-28T11:38:56;21.93;;;9.70;;
20928;SDS011;21895;47.072;15.132;2023-02-28T11:44:32;24.80;;;10.83;;
20928;SDS011;21895;47.072;15.132;2023-02-28T11:49:48;17.87;;;8.67;;
20928;SDS011;21895;47.072;15.132;2023-02-28T11:55:45;23.33;;;9.43;;
20928;SDS011;21895;47.072;15.132;2023-02-28T11:59:02;24.03;;;9.67;;
20928;SDS011;21895;47.072;15.132;2023-02-28T12:04:11;19.67;;;9.13;;
20928;SDS011;21895;47.072;15.132;2023-02-28T12:11:54;20.90;;;9.63;;
20928;SDS011;21895;47.072;15.132;2023-02-28T12:16:11;24.90;;;9.40;;
20928;SDS011;21895;47.072;15.132;2023-02-28T12:19:06;25.60;;;8.97;;
20928;SDS011;21895;47.072;15.132;2023-02-28T12:22:12;24.70;;;9.93;;
20928;SDS011;21895;47.072;15.132;2023-02-28T12:26:29;24.73;;;10.10;;
20928;SDS011;21895;47.072;15.132;2023-02-28T12:33:35;19.77;;;9.43;;
20928;SDS011;21895;47.072;15.132;2023-02-28T12:36:11;25.47;;;10.40;;
20928;SDS011;21895;47.072;15.132;2023-02-28T12:38:56;29.30;;;10.27;;
20928;SDS011;21895;47.072;15.132;2023-02-28T12:42:32;22.90;;;9.97;;
20928;SDS011;21895;47.072;15.132;2023-02-28T12:45:31;25.47;;;9.90;;
20928;SDS011;21895;47.072;15.132;2023-02-28T12:48:13;26.30;;;10.40;;
20928;SDS011;21895;47.072;15.132;2023-02-28T12:51:08;28.60;;;10.70;;
20928;SDS011;21895;47.072;15.132;2023-02-28T12:53:45;29.00;;;10.13;;
20928;SDS011;21895;47.072;15.132;2023-02-28T12:59:03;26.20;;;9.70;;
20928;SDS011;21895;47.072;15.132;2023-02-28T13:02:09;25.23;;;9.97;;
20928;SDS011;21895;47.072;15.132;2023-02-28T13:07:26;32.13;;;9.93;;
20928;SDS011;21895;47.072;15.132;2023-02-28T13:11:00;24.80;;;10.10;;
20928;SDS011;21895;47.072;15.132;2023-02-28T13:13:30;23.33;;;9.97;;
20928;SDS011;21895;47.072;15.132;2023-02-28T13:18:45;27.07;;;10.13;;
20928;SDS011;21895;47.072;15.132;2023-02-28T13:27:24;22.97;;;10.13;;
20928;SDS011;21895;47.072;15.132;2023-02-28T13:34:13;23.50;;;9.33;;
20928;SDS011;21895;47.072;15.132;2023-02-28T13:36:41;21.63;;;10.03;;
20928;SDS011;21895;47.072;15.132;2023-02-28T13:47:19;23.17;;;9.60;;
20928;SDS011;21895;47.072;15.132;2023-02-28T13:49:53;25.77;;;9.47;;
20928;SDS011;21895;47.072;15.132;2023-02-28T13:52:20;22.97;;;10.40;;
20928;SDS011;21895;47.072;15.132;2023-02-28T14:06:15;31.07;;;10.17;;
20928;SDS011;21895;47.072;15.132;2023-02-28T14:09:45;22.83;;;9.57;;
20928;SDS011;21895;47.072;15.132;2023-02-28T14:12:53;26.43;;;10.27;;
20928;SDS011;21895;47.072;15.132;2023-02-28T14:17:46;33.40;;;11.07;;
20928;SDS011;21895;47.072;15.132;2023-02-28T14:20:21;33.17;;;10.57;;
20928;SDS011;21895;47.072;15.132;2023-02-28T14:23:07;29.83;;;11.67;;
20928;SDS011;21895;47.072;15.132;2023-02-28T14:26:18;27.90;;;11.50;;
20928;SDS011;21895;47.072;15.132;2023-02-28T14:39:04;22.90;;;9.50;;
20928;SDS011;21895;47.072;15.132;2023-02-28T14:41:44;27.47;;;10.17;;
20928;SDS011;21895;47.072;15.132;2023-02-28T14:44:18;27.00;;;11.00;;
20928;SDS011;21895;47.072;15.132;2023-02-28T14:46:54;21.63;;;9.93;;
20928;SDS011;21895;47.072;15.132;2023-02-28T14:49:35;23.83;;;10.30;;
20928;SDS011;21895;47.072;15.132;2023-02-28T14:52:23;26.90;;;10.93;;
20928;SDS011;21895;47.072;15.132;2023-02-28T14:54:55;26.87;;;10.83;;
20928;SDS011;21895;47.072;15.132;2023-02-28T14:57:42;27.20;;;10.63;;
20928;SDS011;21895;47.072;15.132;2023-02-28T15:00:23;25.70;;;11.20;;
20928;SDS011;21895;47.072;15.132;2023-02-28T15:02:53;21.37;;;9.70;;
20928;SDS011;21895;47.072;15.132;2023-02-28T15:05:32;23.47;;;10.70;;
20928;SDS011;21895;47.072;15.132;2023-02-28T15:08:01;25.83;;;10.90;;
20928;SDS011;21895;47.072;15.132;2023-02-28T15:10:44;24.73;;;10.53;;
20928;SDS011;21895;47.072;15.132;2023-02-28T15:13:26;26.73;;;10.30;;
20928;SDS011;21895;47.072;15.132;2023-02-28T15:16:11;22.83;;;10.23;;
20928;SDS011;21895;47.072;15.132;2023-02-28T15:18:50;23.60;;;9.30;;
20928;SDS011;21895;47.072;15.132;2023-02-28T15:21:29;33.43;;;10.60;;
20928;SDS011;21895;47.072;15.132;2023-02-28T15:24:46;24.30;;;9.47;;
20928;SDS011;21895;47.072;15.132;2023-02-28T15:27:21;22.17;;;9.47;;
20928;SDS011;21895;47.072;15.132;2023-02-28T15:29:55;24.30;;;10.00;;
20928;SDS011;21895;47.072;15.132;2023-02-28T15:32:30;24.30;;;10.50;;
20928;SDS011;21895;47.072;15.132;2023-02-28T15:35:17;25.50;;;10.70;;
20928;SDS011;21895;47.072;15.132;2023-02-28T15:37:56;28.07;;;10.93;;
20928;SDS011;21895;47.072;15.132;2023-02-28T15:40:46;28.90;;;10.23;;
20928;SDS011;21895;47.072;15.132;2023-02-28T15:43:27;22.37;;;10.43;;
20928;SDS011;21895;47.072;15.132;2023-02-28T15:46:01;22.70;;;9.77;;
20928;SDS011;21895;47.072;15.132;2023-02-28T15:48:37;23.10;;;10.07;;
20928;SDS011;21895;47.072;15.132;2023-02-28T15:51:25;22.77;;;10.17;;
20928;SDS011;21895;47.072;15.132;2023-02-28T15:54:01;27.43;;;11.00;;
20928;SDS011;21895;47.072;15.132;2023-02-28T15:56:44;24.53;;;10.43;;
20928;SDS011;21895;47.072;15.132;2023-02-28T15:59:18;27.67;;;11.57;;
20928;SDS011;21895;47.072;15.132;2023-02-28T16:02:04;24.67;;;9.83;;
20928;SDS011;21895;47.072;15.132;2023-02-28T16:09:31;28.53;;;10.53;;
20928;SDS011;21895;47.072;15.132;2023-02-28T16:12:00;28.37;;;10.63;;
20928;SDS011;21895;47.072;15.132;2023-02-28T16:14:29;29.33;;;11.33;;
20928;SDS011;21895;47.072;15.132;2023-02-28T16:16:57;30.40;;;10.53;;
20928;SDS011;21895;47.072;15.132;2023-02-28T16:19:45;28.10;;;10.43;;
20928;SDS011;21895;47.072;15.132;2023-02-28T16:22:11;29.70;;;11.63;;
20928;SDS011;21895;47.072;15.132;2023-02-28T16:24:38;24.57;;;10.63;;
20928;SDS011;21895;47.072;15.132;2023-02-28T16:27:05;25.83;;;10.30;;
20928;SDS011;21895;47.072;15.132;2023-02-28T16:29:36;27.43;;;11.03;;
20928;SDS011;21895;47.072;15.132;2023-02-28T16:32:06;30.50;;;11.20;;
20928;SDS011;21895;47.072;15.132;2023-02-28T16:34:32;28.13;;;10.30;;
20928;SDS011;21895;47.072;15.132;2023-02-28T16:36:59;24.47;;;10.57;;
20928;SDS011;21895;47.072;15.132;2023-02-28T16:39:25;24.47;;;10.40;;
20928;SDS011;21895;47.072;15.132;2023-02-28T16:41:52;23.00;;;10.43;;
20928;SDS011;21895;47.072;15.132;2023-02-28T16:44:26;28.77;;;11.43;;
20928;SDS011;21895;47.072;15.132;2023-02-28T16:46:59;26.00;;;10.60;;
20928;SDS011;21895;47.072;15.132;2023-02-28T16:49:26;36.13;;;12.37;;
20928;SDS011;21895;47.072;15.132;2023-02-28T16:51:53;27.27;;;10.80;;
20928;SDS011;21895;47.072;15.132;2023-02-28T16:54:20;27.37;;;11.13;;
20928;SDS011;21895;47.072;15.132;2023-02-28T16:56:47;34.80;;;12.20;;
20928;SDS011;21895;47.072;15.132;2023-02-28T16:59:17;30.30;;;12.57;;
20928;SDS011;21895;47.072;15.132;2023-02-28T17:01:48;31.70;;;11.30;;
20928;SDS011;21895;47.072;15.132;2023-02-28T17:04:16;28.50;;;11.60;;
20928;SDS011;21895;47.072;15.132;2023-02-28T17:06:43;22.90;;;10.70;;
20928;SDS011;21895;47.072;15.132;2023-02-28T17:09:17;33.73;;;11.07;;
20928;SDS011;21895;47.072;15.132;2023-02-28T17:11:56;25.40;;;10.60;;
20928;SDS011;21895;47.072;15.132;2023-02-28T17:14:22;25.83;;;10.37;;